createdAt,value
2017-01-31T00:00:38.135Z,47.29
2017-01-31T00:01:37.762Z,47.49
2017-01-31T00:02:38.184Z,47.39
2017-01-31T00:03:38.215Z,47.39
2017-01-31T00:04:38.240Z,47.19
2017-01-31T00:05:38.267Z,47.58
2017-01-31T00:06:38.297Z,47.29
2017-01-31T00:07:37.924Z,47.39
2017-01-31T00:08:37.954Z,47.39
2017-01-31T00:09:37.983Z,46.91
2017-01-31T00:10:38.404Z,47
2017-01-31T00:11:38.029Z,47
2017-01-31T00:12:38.453Z,47.1
2017-01-31T00:13:38.490Z,47
2017-01-31T00:14:38.510Z,47.1
2017-01-31T00:15:38.543Z,47.1
2017-01-31T00:16:38.175Z,46.91
2017-01-31T00:17:38.220Z,47.19
2017-01-31T00:18:38.500Z,47
2017-01-31T00:19:38.646Z,47.1
2017-01-31T00:20:38.687Z,47
2017-01-31T00:21:38.304Z,46.91
2017-01-31T00:22:38.728Z,46.91
2017-01-31T00:23:39.005Z,46.71
2017-01-31T00:24:38.781Z,46.62
2017-01-31T00:25:38.409Z,46.33
2017-01-31T00:26:38.434Z,46.33
2017-01-31T00:27:38.864Z,46.62
2017-01-31T00:28:38.744Z,46.42
2017-01-31T00:29:38.922Z,46.52
2017-01-31T00:30:38.942Z,46.52
2017-01-31T00:31:38.575Z,46.52
2017-01-31T00:32:38.992Z,46.33
2017-01-31T00:33:39.275Z,46.42
2017-01-31T00:34:39.049Z,46.62
2017-01-31T00:35:39.074Z,46.42
2017-01-31T00:36:38.710Z,46.42
2017-01-31T00:37:39.129Z,46.42
2017-01-31T00:38:39.018Z,46.71
2017-01-31T00:39:39.185Z,46.23
2017-01-31T00:40:38.818Z,46.23
2017-01-31T00:41:39.243Z,46.62
2017-01-31T00:42:39.267Z,46.14
2017-01-31T00:43:39.150Z,46.23
2017-01-31T00:44:39.323Z,46.23
2017-01-31T00:45:39.377Z,46.14
2017-01-31T00:46:39.374Z,46.21
2017-01-31T00:47:39.002Z,46.21
2017-01-31T00:48:39.677Z,46.14
2017-01-31T00:49:39.060Z,46.14
2017-01-31T00:50:39.481Z,45.75
2017-01-31T00:51:39.114Z,46.11
2017-01-31T00:52:39.534Z,45.94
2017-01-31T00:53:39.814Z,46.11
2017-01-31T00:54:39.590Z,46.04
2017-01-31T00:55:39.220Z,46.04
2017-01-31T00:56:39.244Z,45.92
2017-01-31T00:57:39.671Z,45.84
2017-01-31T00:58:39.698Z,45.84
2017-01-31T00:59:39.724Z,45.83
2017-01-31T01:00:39.748Z,46.11
2017-01-31T01:01:39.780Z,45.92
2017-01-31T01:02:39.805Z,45.65
2017-01-31T01:03:39.835Z,45.75
2017-01-31T01:04:39.462Z,45.92
2017-01-31T01:05:39.886Z,45.83
2017-01-31T01:06:39.911Z,45.73
2017-01-31T01:07:39.941Z,45.92
2017-01-31T01:08:39.572Z,45.92
2017-01-31T01:09:39.990Z,46.11
2017-01-31T01:10:40.018Z,45.92
2017-01-31T01:11:40.048Z,45.92
2017-01-31T01:12:40.075Z,45.83
2017-01-31T01:13:40.096Z,45.92
2017-01-31T01:14:40.129Z,45.84
2017-01-31T01:15:39.761Z,46.01
2017-01-31T01:16:39.786Z,46.14
2017-01-31T01:17:39.811Z,45.92
2017-01-31T01:18:40.231Z,45.84
2017-01-31T01:19:40.117Z,45.92
2017-01-31T01:21:40.313Z,45.92
2017-01-31T01:22:40.342Z,45.92
2017-01-31T01:23:39.976Z,46.11
2017-01-31T01:24:40.652Z,45.73
2017-01-31T01:25:40.420Z,46.01
2017-01-31T01:26:40.451Z,46.01
2017-01-31T01:27:40.475Z,46.01
2017-01-31T01:28:40.108Z,45.92
2017-01-31T01:29:40.384Z,46.11
2017-01-31T01:30:40.160Z,45.83
2017-01-31T01:31:40.187Z,46.11
2017-01-31T01:32:40.216Z,45.92
2017-01-31T01:33:40.638Z,45.63
2017-01-31T01:34:40.916Z,45.25
2017-01-31T01:35:40.697Z,46.11
2017-01-31T01:36:40.716Z,45.63
2017-01-31T01:37:40.350Z,46.01
2017-01-31T01:38:40.779Z,45.83
2017-01-31T01:39:40.664Z,45.44
2017-01-31T01:40:40.825Z,45.44
2017-01-31T01:41:40.847Z,45.73
2017-01-31T01:42:40.477Z,45.73
2017-01-31T01:43:40.510Z,45.73
2017-01-31T01:44:41.183Z,45.44
2017-01-31T01:45:40.564Z,45.83
2017-01-31T01:46:40.622Z,45.44
2017-01-31T01:47:40.618Z,45.73
2017-01-31T01:48:41.047Z,45.73
2017-01-31T01:49:41.315Z,45.73
2017-01-31T01:50:41.095Z,45.63
2017-01-31T01:51:40.724Z,45.73
2017-01-31T01:52:40.753Z,45.73
2017-01-31T01:53:41.180Z,45.44
2017-01-31T01:54:40.807Z,45.53
2017-01-31T01:55:40.832Z,45.44
2017-01-31T01:56:41.259Z,45.83
2017-01-31T01:57:41.282Z,45.53
2017-01-31T01:58:40.929Z,45.63
2017-01-31T01:59:40.946Z,45.73
2017-01-31T02:00:41.357Z,45.44
2017-01-31T02:01:41.382Z,45.73
2017-01-31T02:02:41.021Z,45.73
2017-01-31T02:03:41.442Z,45.73
2017-01-31T02:04:41.078Z,45.73
2017-01-31T02:05:41.751Z,45.73
2017-01-31T02:06:41.523Z,45.73
2017-01-31T02:07:41.555Z,45.63
2017-01-31T02:08:41.180Z,45.63
2017-01-31T02:09:41.206Z,45.92
2017-01-31T02:10:42.153Z,45.92
2017-01-31T02:11:41.655Z,45.63
2017-01-31T02:12:41.288Z,45.34
2017-01-31T02:13:41.312Z,45.34
2017-01-31T02:14:41.345Z,45.53
2017-01-31T02:15:41.368Z,45.53
2017-01-31T02:16:41.795Z,45.05
2017-01-31T02:17:41.817Z,44.96
2017-01-31T02:18:41.444Z,44.96
2017-01-31T02:19:41.866Z,45.25
2017-01-31T02:20:41.504Z,44.96
2017-01-31T02:21:41.535Z,45.53
2017-01-31T02:22:41.555Z,45.15
2017-01-31T02:23:41.580Z,45.15
2017-01-31T02:24:42.005Z,45.25
2017-01-31T02:25:42.033Z,45.25
2017-01-31T02:26:41.658Z,45.15
2017-01-31T02:27:42.087Z,45.34
2017-01-31T02:28:41.730Z,45.05
2017-01-31T02:29:42.135Z,45.05
2017-01-31T02:30:42.161Z,45.25
2017-01-31T02:31:42.193Z,45.15
2017-01-31T02:32:41.831Z,44.96
2017-01-31T02:33:42.251Z,45.25
2017-01-31T02:34:42.272Z,44.86
2017-01-31T02:35:42.295Z,44.86
2017-01-31T02:36:42.337Z,45.44
2017-01-31T02:37:41.958Z,45.15
2017-01-31T02:38:42.379Z,45.15
2017-01-31T02:39:42.408Z,45.25
2017-01-31T02:40:42.432Z,45.44
2017-01-31T02:41:42.708Z,45.44
2017-01-31T02:42:42.486Z,45.44
2017-01-31T02:43:42.513Z,45.44
2017-01-31T02:44:42.539Z,45.44
2017-01-31T02:45:42.171Z,45.53
2017-01-31T02:46:42.455Z,45.44
2017-01-31T02:47:42.622Z,45.25
2017-01-31T02:48:42.650Z,45.53
2017-01-31T02:49:42.674Z,45.53
2017-01-31T02:50:42.695Z,45.53
2017-01-31T02:51:42.840Z,45.25
2017-01-31T02:52:42.752Z,45.15
2017-01-31T02:53:42.406Z,45.15
2017-01-31T02:54:42.833Z,45.05
2017-01-31T02:55:42.438Z,45.05
2017-01-31T02:56:42.715Z,45.22
2017-01-31T02:57:42.488Z,45.15
2017-01-31T02:58:42.912Z,45.05
2017-01-31T02:59:42.941Z,45.05
2017-01-31T03:00:42.971Z,44.96
2017-01-31T03:01:43.242Z,45.05
2017-01-31T03:02:43.020Z,44.86
2017-01-31T03:03:43.050Z,44.86
2017-01-31T03:04:43.073Z,45.15
2017-01-31T03:05:43.102Z,44.76
2017-01-31T03:06:43.126Z,45.15
2017-01-31T03:07:43.158Z,45.05
2017-01-31T03:08:43.180Z,45.15
2017-01-31T03:09:42.808Z,44.96
2017-01-31T03:10:43.234Z,44.86
2017-01-31T03:11:42.862Z,44.76
2017-01-31T03:12:43.287Z,44.86
2017-01-31T03:13:42.915Z,44.28
2017-01-31T03:14:42.944Z,44.17
2017-01-31T03:15:43.373Z,44.76
2017-01-31T03:16:43.397Z,44.48
2017-01-31T03:17:43.422Z,44.76
2017-01-31T03:18:43.444Z,44.67
2017-01-31T03:19:43.471Z,44.76
2017-01-31T03:20:43.104Z,44.67
2017-01-31T03:21:43.526Z,44.38
2017-01-31T03:22:43.798Z,44.57
2017-01-31T03:23:43.186Z,44.57
2017-01-31T03:24:43.611Z,44.76
2017-01-31T03:25:43.242Z,44.67
2017-01-31T03:26:43.662Z,44.65
2017-01-31T03:27:43.546Z,44.67
2017-01-31T03:28:43.714Z,44.86
2017-01-31T03:29:43.739Z,44.74
2017-01-31T03:31:43.796Z,44.65
2017-01-31T03:32:43.422Z,44.67
2017-01-31T03:33:43.845Z,44.76
2017-01-31T03:34:44.427Z,44.74
2017-01-31T03:35:43.504Z,44.84
2017-01-31T03:36:43.527Z,44.45
2017-01-31T03:37:43.952Z,44.55
2017-01-31T03:38:43.982Z,44.55
2017-01-31T03:39:44.506Z,44.26
2017-01-31T03:40:44.032Z,44.45
2017-01-31T03:41:44.064Z,44.38
2017-01-31T03:42:44.089Z,44.84
2017-01-31T03:43:44.126Z,44.45
2017-01-31T03:44:44.398Z,43.97
2017-01-31T03:45:44.167Z,44.17
2017-01-31T03:46:43.794Z,43.97
2017-01-31T03:47:44.219Z,44.26
2017-01-31T03:48:44.248Z,44.07
2017-01-31T03:49:44.528Z,44.07
2017-01-31T03:50:44.306Z,44.07
2017-01-31T03:51:43.927Z,44.26
2017-01-31T03:52:43.960Z,44.26
2017-01-31T03:53:43.984Z,44.07
2017-01-31T03:54:44.661Z,44.07
2017-01-31T03:55:44.430Z,44.07
2017-01-31T03:56:44.071Z,44.26
2017-01-31T03:57:44.487Z,44.26
2017-01-31T03:58:44.116Z,44.17
2017-01-31T03:59:44.401Z,44.17
2017-01-31T04:00:44.169Z,44.07
2017-01-31T04:01:44.204Z,44.17
2017-01-31T04:02:44.223Z,44.17
2017-01-31T04:03:44.251Z,43.97
2017-01-31T04:04:44.924Z,44.17
2017-01-31T04:05:44.304Z,44.19
2017-01-31T04:06:44.732Z,44.07
2017-01-31T04:07:44.355Z,44.38
2017-01-31T04:08:44.779Z,44.55
2017-01-31T04:09:44.663Z,44.35
2017-01-31T04:10:44.437Z,44.35
2017-01-31T04:11:44.866Z,44.26
2017-01-31T04:12:44.886Z,44.28
2017-01-31T04:13:44.921Z,44.26
2017-01-31T04:14:45.197Z,44.35
2017-01-31T04:15:44.973Z,44.35
2017-01-31T04:16:44.593Z,44.35
2017-01-31T04:17:45.026Z,44.35
2017-01-31T04:18:44.651Z,44.35
2017-01-31T04:19:45.328Z,44.45
2017-01-31T04:20:45.096Z,44.26
2017-01-31T04:21:45.129Z,44.26
2017-01-31T04:22:44.758Z,44.26
2017-01-31T04:23:45.182Z,44.17
2017-01-31T04:24:45.207Z,43.97
2017-01-31T04:25:45.232Z,44.17
2017-01-31T04:26:44.869Z,43.88
2017-01-31T04:27:44.894Z,43.88
2017-01-31T04:28:45.319Z,43.78
2017-01-31T04:29:45.341Z,43.68
2017-01-31T04:30:45.368Z,43.88
2017-01-31T04:31:45.409Z,43.68
2017-01-31T04:32:45.021Z,43.88
2017-01-31T04:33:45.449Z,43.68
2017-01-31T04:34:45.075Z,43.97
2017-01-31T04:35:45.507Z,43.97
2017-01-31T04:36:45.529Z,43.68
2017-01-31T04:37:45.545Z,43.68
2017-01-31T04:38:45.577Z,43.59
2017-01-31T04:39:45.619Z,43.68
2017-01-31T04:40:45.630Z,43.59
2017-01-31T04:41:45.660Z,43.68
2017-01-31T04:42:45.689Z,43.68
2017-01-31T04:43:45.321Z,43.49
2017-01-31T04:44:45.742Z,43.59
2017-01-31T04:45:45.771Z,43.59
2017-01-31T04:46:45.403Z,43.68
2017-01-31T04:47:45.820Z,43.97
2017-01-31T04:48:45.449Z,43.97
2017-01-31T04:49:45.873Z,43.97
2017-01-31T04:50:45.502Z,43.78
2017-01-31T04:51:45.927Z,43.78
2017-01-31T04:52:45.555Z,43.78
2017-01-31T04:53:45.981Z,43.78
2017-01-31T04:54:45.611Z,43.78
2017-01-31T04:55:46.292Z,43.68
2017-01-31T04:56:46.054Z,43.88
2017-01-31T04:57:46.086Z,43.88
2017-01-31T04:58:45.711Z,43.78
2017-01-31T04:59:45.745Z,43.78
2017-01-31T05:00:46.022Z,43.78
2017-01-31T05:01:45.822Z,43.78
2017-01-31T05:02:46.224Z,43.88
2017-01-31T05:03:46.233Z,43.78
2017-01-31T05:04:46.272Z,43.78
2017-01-31T05:05:46.155Z,43.4
2017-01-31T05:06:46.321Z,43.68
2017-01-31T05:07:46.351Z,43.49
2017-01-31T05:08:46.375Z,43.78
2017-01-31T05:09:46.403Z,43.68
2017-01-31T05:10:46.686Z,43.49
2017-01-31T05:11:46.458Z,43.68
2017-01-31T05:12:46.487Z,43.78
2017-01-31T05:13:46.127Z,43.49
2017-01-31T05:14:46.528Z,43.49
2017-01-31T05:15:46.420Z,43.68
2017-01-31T05:16:46.601Z,43.68
2017-01-31T05:17:46.217Z,43.2
2017-01-31T05:18:46.241Z,43.49
2017-01-31T05:19:46.272Z,43.78
2017-01-31T05:20:46.577Z,43.3
2017-01-31T05:21:46.725Z,43.68
2017-01-31T05:22:46.750Z,43.59
2017-01-31T05:23:46.777Z,43.68
2017-01-31T05:24:46.403Z,43.68
2017-01-31T05:25:47.090Z,43.4
2017-01-31T05:26:46.463Z,43.49
2017-01-31T05:27:46.886Z,43.59
2017-01-31T05:28:46.911Z,43.68
2017-01-31T05:29:46.935Z,43.49
2017-01-31T05:30:46.960Z,43.59
2017-01-31T05:31:46.989Z,43.59
2017-01-31T05:32:47.022Z,43.59
2017-01-31T05:33:47.042Z,43.49
2017-01-31T05:34:47.074Z,43.78
2017-01-31T05:35:47.096Z,43.88
2017-01-31T05:36:47.122Z,44.07
2017-01-31T05:37:47.149Z,44.28
2017-01-31T05:38:47.174Z,44.17
2017-01-31T05:39:46.802Z,44.45
2017-01-31T05:40:47.228Z,44.19
2017-01-31T05:41:47.255Z,44.45
2017-01-31T05:42:47.284Z,44.09
2017-01-31T05:43:46.912Z,44.48
2017-01-31T05:44:47.340Z,44.38
2017-01-31T05:45:47.358Z,43.99
2017-01-31T05:46:47.413Z,44.19
2017-01-31T05:47:47.024Z,44.19
2017-01-31T05:48:47.045Z,44.38
2017-01-31T05:49:47.465Z,44.28
2017-01-31T05:50:47.501Z,44.38
2017-01-31T05:51:47.158Z,44.09
2017-01-31T05:52:47.559Z,44.19
2017-01-31T05:53:47.576Z,44.19
2017-01-31T05:54:47.208Z,44.09
2017-01-31T05:55:47.232Z,43.99
2017-01-31T05:56:47.258Z,44.19
2017-01-31T05:57:47.682Z,44.28
2017-01-31T05:58:47.311Z,44.19
2017-01-31T05:59:47.340Z,44.19
2017-01-31T06:00:47.760Z,44.09
2017-01-31T06:01:47.389Z,44.09
2017-01-31T06:02:47.818Z,43.99
2017-01-31T06:03:47.843Z,44.09
2017-01-31T06:04:47.476Z,44.09
2017-01-31T06:05:47.901Z,44.31
2017-01-31T06:06:47.937Z,44.09
2017-01-31T06:07:47.950Z,44.11
2017-01-31T06:08:47.978Z,44.31
2017-01-31T06:09:48.004Z,44.49
2017-01-31T06:10:48.033Z,44.49
2017-01-31T06:11:48.052Z,44.49
2017-01-31T06:12:47.689Z,44.49
2017-01-31T06:13:47.718Z,44.31
2017-01-31T06:14:48.142Z,44.21
2017-01-31T06:15:48.168Z,44.49
2017-01-31T06:16:48.444Z,44.31
2017-01-31T06:17:48.217Z,44.11
2017-01-31T06:18:47.846Z,44.31
2017-01-31T06:19:48.274Z,44.49
2017-01-31T06:20:48.299Z,43.82
2017-01-31T06:21:48.827Z,43.73
2017-01-31T06:22:48.352Z,43.82
2017-01-31T06:23:48.372Z,43.92
2017-01-31T06:24:48.406Z,43.92
2017-01-31T06:25:48.435Z,43.92
2017-01-31T06:26:48.711Z,43.73
2017-01-31T06:27:48.489Z,43.63
2017-01-31T06:28:48.112Z,44.02
2017-01-31T06:29:48.542Z,43.65
2017-01-31T06:30:48.566Z,43.73
2017-01-31T06:31:48.837Z,43.82
2017-01-31T06:32:48.223Z,43.85
2017-01-31T06:33:48.641Z,43.92
2017-01-31T06:34:48.680Z,44.13
2017-01-31T06:35:48.307Z,43.44
2017-01-31T06:36:48.979Z,43.65
2017-01-31T06:37:48.360Z,43.37
2017-01-31T06:38:48.389Z,43.54
2017-01-31T06:39:48.805Z,43.55
2017-01-31T06:40:48.842Z,43.55
2017-01-31T06:41:49.122Z,43.75
2017-01-31T06:42:48.892Z,43.46
2017-01-31T06:43:48.523Z,43.55
2017-01-31T06:44:48.945Z,43.85
2017-01-31T06:45:48.574Z,43.75
2017-01-31T06:46:48.853Z,43.85
2017-01-31T06:47:49.027Z,43.17
2017-01-31T06:48:48.661Z,43.46
2017-01-31T06:49:48.685Z,43.55
2017-01-31T06:50:49.113Z,43.46
2017-01-31T06:51:48.996Z,43.27
2017-01-31T06:52:49.159Z,43.37
2017-01-31T06:53:48.791Z,43.17
2017-01-31T06:54:49.220Z,43.27
2017-01-31T06:55:48.850Z,43.17
2017-01-31T06:56:49.120Z,43.07
2017-01-31T06:57:48.902Z,43.07
2017-01-31T06:58:48.929Z,42.97
2017-01-31T06:59:49.351Z,42.97
2017-01-31T07:00:49.374Z,42.88
2017-01-31T07:01:49.658Z,43.07
2017-01-31T07:02:49.443Z,43.07
2017-01-31T07:03:49.058Z,43.05
2017-01-31T07:04:49.491Z,43.15
2017-01-31T07:05:49.517Z,42.97
2017-01-31T07:06:49.793Z,42.97
2017-01-31T07:07:49.173Z,42.96
2017-01-31T07:08:49.199Z,42.97
2017-01-31T07:09:49.228Z,42.97
2017-01-31T07:10:49.253Z,43.07
2017-01-31T07:11:49.934Z,43.17
2017-01-31T07:12:49.710Z,43.17
2017-01-31T07:13:49.726Z,42.97
2017-01-31T07:14:49.755Z,43.37
2017-01-31T07:15:49.788Z,43.07
2017-01-31T07:16:50.064Z,42.97
2017-01-31T07:17:49.837Z,42.86
2017-01-31T07:18:49.470Z,42.88
2017-01-31T07:19:49.893Z,42.88
2017-01-31T07:20:49.925Z,42.59
2017-01-31T07:21:50.206Z,42.59
2017-01-31T07:22:49.982Z,42.59
2017-01-31T07:23:50.003Z,43.46
2017-01-31T07:24:49.635Z,42.67
2017-01-31T07:25:50.056Z,42.97
2017-01-31T07:26:50.336Z,42.97
2017-01-31T07:27:50.113Z,42.57
2017-01-31T07:28:49.750Z,43.27
2017-01-31T07:29:50.171Z,42.59
2017-01-31T07:30:50.192Z,42.69
2017-01-31T07:31:50.081Z,43.55
2017-01-31T07:32:49.865Z,42.88
2017-01-31T07:33:50.275Z,43.63
2017-01-31T07:34:50.303Z,42.79
2017-01-31T07:35:50.326Z,43.46
2017-01-31T07:36:50.604Z,43.05
2017-01-31T07:37:49.985Z,43.07
2017-01-31T07:38:50.436Z,43.07
2017-01-31T07:39:50.438Z,43.17
2017-01-31T07:40:50.067Z,43.07
2017-01-31T07:41:50.097Z,42.86
2017-01-31T07:42:50.513Z,42.88
2017-01-31T07:43:50.545Z,43.17
2017-01-31T07:44:50.570Z,43.17
2017-01-31T07:45:50.594Z,42.97
2017-01-31T07:46:50.631Z,43.15
2017-01-31T07:47:50.256Z,43.44
2017-01-31T07:48:50.677Z,42.86
2017-01-31T07:49:50.703Z,42.57
2017-01-31T07:50:50.341Z,42.96
2017-01-31T07:51:50.760Z,43.05
2017-01-31T07:52:50.392Z,42.96
2017-01-31T07:53:50.818Z,43.05
2017-01-31T07:54:50.846Z,43.07
2017-01-31T07:55:50.470Z,43.24
2017-01-31T07:56:50.903Z,43.05
2017-01-31T07:57:51.179Z,43.82
2017-01-31T07:58:50.952Z,42.97
2017-01-31T07:59:50.582Z,43.63
2017-01-31T08:00:50.615Z,43.54
2017-01-31T08:01:50.639Z,43.73
2017-01-31T08:02:51.308Z,43.92
2017-01-31T08:03:50.695Z,43.73
2017-01-31T08:04:51.135Z,43.54
2017-01-31T08:05:51.142Z,43.54
2017-01-31T08:06:51.200Z,43.73
2017-01-31T08:07:51.047Z,43.73
2017-01-31T08:08:51.225Z,43.73
2017-01-31T08:09:50.859Z,43.73
2017-01-31T08:10:51.277Z,43.82
2017-01-31T08:11:51.303Z,43.44
2017-01-31T08:12:51.584Z,43.24
2017-01-31T08:13:51.359Z,43.24
2017-01-31T08:14:51.383Z,43.34
2017-01-31T08:15:51.414Z,43.24
2017-01-31T08:16:51.046Z,43.05
2017-01-31T08:17:51.721Z,42.96
2017-01-31T08:18:51.095Z,42.96
2017-01-31T08:19:51.122Z,42.67
2017-01-31T08:20:51.548Z,42.96
2017-01-31T08:21:51.576Z,43.44
2017-01-31T08:22:51.859Z,42.67
2017-01-31T08:23:51.623Z,43.05
2017-01-31T08:24:51.651Z,42.96
2017-01-31T08:25:51.279Z,43.54
2017-01-31T08:26:51.710Z,42.86
2017-01-31T08:27:51.595Z,42.86
2017-01-31T08:28:51.763Z,42.96
2017-01-31T08:29:51.388Z,43.05
2017-01-31T08:30:51.424Z,42.86
2017-01-31T08:32:51.473Z,43.34
2017-01-31T08:33:51.898Z,42.57
2017-01-31T08:34:51.926Z,42.57
2017-01-31T08:35:51.948Z,42.47
2017-01-31T08:36:51.977Z,42.57
2017-01-31T08:37:51.618Z,42.57
2017-01-31T08:38:52.034Z,42.28
2017-01-31T08:39:51.663Z,42.67
2017-01-31T08:40:51.691Z,42.57
2017-01-31T08:41:52.116Z,42.67
2017-01-31T08:42:52.141Z,42.38
2017-01-31T08:43:52.186Z,42.28
2017-01-31T08:44:52.194Z,42.38
2017-01-31T08:45:51.823Z,42.38
2017-01-31T08:46:52.252Z,42.09
2017-01-31T08:47:52.277Z,42.28
2017-01-31T08:48:52.302Z,42.28
2017-01-31T08:49:52.334Z,42.09
2017-01-31T08:50:52.359Z,42.47
2017-01-31T08:51:52.380Z,42.19
2017-01-31T08:52:52.016Z,42.19
2017-01-31T08:53:52.041Z,42.09
2017-01-31T08:54:52.082Z,42.46
2017-01-31T08:55:52.351Z,42.28
2017-01-31T08:56:52.515Z,42.19
2017-01-31T08:57:52.148Z,42.19
2017-01-31T08:58:52.573Z,42.19
2017-01-31T08:59:52.598Z,42.16
2017-01-31T09:00:53.131Z,42.26
2017-01-31T09:01:52.655Z,42.19
2017-01-31T09:02:52.288Z,42.09
2017-01-31T09:03:52.316Z,41.8
2017-01-31T09:04:52.338Z,42.38
2017-01-31T09:05:53.011Z,41.8
2017-01-31T09:06:52.395Z,41.78
2017-01-31T09:07:52.420Z,41.59
2017-01-31T09:08:52.841Z,41.97
2017-01-31T09:09:52.869Z,41.97
2017-01-31T09:10:53.145Z,41.97
2017-01-31T09:11:52.928Z,41.97
2017-01-31T09:12:52.952Z,42.07
2017-01-31T09:13:52.580Z,42.16
2017-01-31T09:14:52.609Z,42.26
2017-01-31T09:15:52.633Z,42.07
2017-01-31T09:16:53.059Z,41.97
2017-01-31T09:17:53.083Z,42.07
2017-01-31T09:18:53.103Z,42.07
2017-01-31T09:19:52.764Z,42.07
2017-01-31T09:20:53.176Z,42.07
2017-01-31T09:21:53.194Z,42.07
2017-01-31T09:22:52.826Z,41.88
2017-01-31T09:23:52.848Z,42.07
2017-01-31T09:24:53.277Z,42.07
2017-01-31T09:25:52.905Z,42.07
2017-01-31T09:26:53.941Z,42.07
2017-01-31T09:27:53.355Z,42.16
2017-01-31T09:28:53.379Z,42.07
2017-01-31T09:29:53.407Z,41.88
2017-01-31T09:30:53.435Z,42.07
2017-01-31T09:31:53.068Z,42.26
2017-01-31T09:32:53.486Z,42.07
2017-01-31T09:33:53.114Z,41.97
2017-01-31T09:34:53.539Z,41.97
2017-01-31T09:35:53.568Z,41.97
2017-01-31T09:36:53.588Z,42.07
2017-01-31T09:37:53.621Z,42.16
2017-01-31T09:38:53.261Z,42.07
2017-01-31T09:39:53.674Z,42.16
2017-01-31T09:40:53.698Z,42.07
2017-01-31T09:41:53.728Z,41.97
2017-01-31T09:42:53.360Z,42.07
2017-01-31T09:43:53.387Z,41.97
2017-01-31T09:44:53.806Z,42.07
2017-01-31T09:45:53.444Z,41.97
2017-01-31T09:46:53.714Z,41.88
2017-01-31T09:47:53.887Z,41.78
2017-01-31T09:48:53.917Z,41.97
2017-01-31T09:49:53.545Z,41.78
2017-01-31T09:50:53.965Z,41.68
2017-01-31T09:51:54.249Z,42.16
2017-01-31T09:52:54.027Z,41.97
2017-01-31T09:53:54.046Z,42.26
2017-01-31T09:54:54.076Z,42.07
2017-01-31T09:55:54.215Z,41.78
2017-01-31T09:56:54.373Z,42.16
2017-01-31T09:57:54.154Z,42.46
2017-01-31T09:58:53.787Z,42.26
2017-01-31T09:59:53.804Z,42.26
2017-01-31T10:00:54.224Z,42.36
2017-01-31T10:01:54.372Z,42.26
2017-01-31T10:02:54.296Z,41.97
2017-01-31T10:03:54.315Z,42.36
2017-01-31T10:04:54.347Z,42.46
2017-01-31T10:05:54.412Z,42.26
2017-01-31T10:06:53.997Z,42.16
2017-01-31T10:07:54.421Z,41.88
2017-01-31T10:08:54.053Z,42.07
2017-01-31T10:09:54.475Z,42.26
2017-01-31T10:10:54.504Z,42.26
2017-01-31T10:11:54.561Z,42.26
2017-01-31T10:12:54.558Z,42.36
2017-01-31T10:13:54.581Z,42.36
2017-01-31T10:14:54.210Z,42.46
2017-01-31T10:15:54.633Z,42.36
2017-01-31T10:16:54.271Z,42.26
2017-01-31T10:17:54.688Z,42.36
2017-01-31T10:18:54.316Z,42.36
2017-01-31T10:19:54.737Z,42.26
2017-01-31T10:20:54.770Z,42.46
2017-01-31T10:21:54.795Z,42.36
2017-01-31T10:22:54.828Z,41.97
2017-01-31T10:23:54.851Z,42.16
2017-01-31T10:24:54.484Z,41.97
2017-01-31T10:25:54.898Z,42.07
2017-01-31T10:26:54.930Z,42.16
2017-01-31T10:27:54.959Z,42.26
2017-01-31T10:28:54.988Z,42.07
2017-01-31T10:29:55.017Z,42.16
2017-01-31T10:30:55.037Z,42.36
2017-01-31T10:31:54.665Z,42.07
2017-01-31T10:32:54.694Z,42.07
2017-01-31T10:33:55.115Z,42.16
2017-01-31T10:34:55.146Z,42.16
2017-01-31T10:35:55.167Z,42.16
2017-01-31T10:36:55.193Z,42.07
2017-01-31T10:37:54.829Z,42.16
2017-01-31T10:38:55.251Z,42.07
2017-01-31T10:39:55.279Z,42.07
2017-01-31T10:40:54.907Z,42.07
2017-01-31T10:41:55.328Z,42.07
2017-01-31T10:42:54.961Z,42.16
2017-01-31T10:43:54.994Z,42.46
2017-01-31T10:44:55.015Z,42.36
2017-01-31T10:45:55.438Z,42.07
2017-01-31T10:46:55.472Z,42.46
2017-01-31T10:47:55.346Z,42.46
2017-01-31T10:48:55.518Z,42.16
2017-01-31T10:49:55.547Z,42.36
2017-01-31T10:50:55.572Z,42.36
2017-01-31T10:51:55.596Z,42.26
2017-01-31T10:52:55.878Z,42.36
2017-01-31T10:53:55.653Z,42.26
2017-01-31T10:54:55.289Z,42.46
2017-01-31T10:55:55.707Z,42.16
2017-01-31T10:56:55.739Z,42.46
2017-01-31T10:57:56.012Z,42.65
2017-01-31T10:58:55.788Z,42.36
2017-01-31T10:59:55.816Z,42.36
2017-01-31T11:00:55.451Z,42.46
2017-01-31T11:01:55.867Z,42.36
2017-01-31T11:02:56.151Z,42.26
2017-01-31T11:03:55.920Z,42.36
2017-01-31T11:04:55.950Z,42.26
2017-01-31T11:05:55.978Z,42.55
2017-01-31T11:06:56.001Z,42.26
2017-01-31T11:07:56.279Z,42.36
2017-01-31T11:08:56.060Z,42.16
2017-01-31T11:09:56.090Z,42.16
2017-01-31T11:10:56.109Z,42.36
2017-01-31T11:11:56.134Z,42.16
2017-01-31T11:12:56.414Z,42.26
2017-01-31T11:13:55.792Z,42.65
2017-01-31T11:14:55.821Z,42.26
2017-01-31T11:15:56.250Z,42.36
2017-01-31T11:16:56.271Z,42.36
2017-01-31T11:17:55.894Z,42.36
2017-01-31T11:18:56.331Z,42.16
2017-01-31T11:19:55.952Z,42.55
2017-01-31T11:20:55.980Z,42.26
2017-01-31T11:21:56.401Z,42.36
2017-01-31T11:22:56.034Z,42.07
2017-01-31T11:23:56.459Z,42.26
2017-01-31T11:24:56.088Z,42.36
2017-01-31T11:25:56.513Z,42.36
2017-01-31T11:26:56.142Z,42.36
2017-01-31T11:27:56.170Z,42.16
2017-01-31T11:28:56.585Z,42.36
2017-01-31T11:29:56.615Z,42.16
2017-01-31T11:30:56.247Z,42.36
2017-01-31T11:31:56.673Z,42.36
2017-01-31T11:32:56.309Z,42.36
2017-01-31T11:33:56.330Z,42.26
2017-01-31T11:34:56.753Z,42.07
2017-01-31T11:35:56.383Z,42.26
2017-01-31T11:36:56.804Z,42.26
2017-01-31T11:37:56.828Z,42.16
2017-01-31T11:38:56.857Z,42.16
2017-01-31T11:39:56.886Z,42.36
2017-01-31T11:40:56.515Z,42.26
2017-01-31T11:41:56.948Z,42.26
2017-01-31T11:42:56.964Z,42.36
2017-01-31T11:43:56.596Z,42.36
2017-01-31T11:44:56.626Z,42.16
2017-01-31T11:45:57.047Z,42.16
2017-01-31T11:46:56.671Z,42.26
2017-01-31T11:47:57.103Z,42.16
2017-01-31T11:48:56.728Z,42.26
2017-01-31T11:49:56.781Z,42.26
2017-01-31T11:50:57.185Z,42.16
2017-01-31T11:51:57.210Z,42.55
2017-01-31T11:52:57.230Z,42.26
2017-01-31T11:53:57.515Z,42.16
2017-01-31T11:54:57.299Z,42.16
2017-01-31T11:55:56.917Z,42.26
2017-01-31T11:56:57.333Z,42.07
2017-01-31T11:57:56.971Z,42.46
2017-01-31T11:58:57.647Z,42.07
2017-01-31T11:59:57.419Z,42.26
2017-01-31T12:00:57.447Z,42.46
2017-01-31T12:01:57.081Z,42.26
2017-01-31T12:02:57.501Z,42.16
2017-01-31T12:03:57.774Z,42.55
2017-01-31T12:04:57.555Z,42.36
2017-01-31T12:05:57.580Z,42.46
2017-01-31T12:06:57.609Z,42.36
2017-01-31T12:07:57.633Z,42.36
2017-01-31T12:08:58.166Z,42.26
2017-01-31T12:09:57.692Z,42.55
2017-01-31T12:10:57.716Z,42.36
2017-01-31T12:11:57.741Z,42.46
2017-01-31T12:12:57.769Z,42.55
2017-01-31T12:13:58.045Z,42.07
2017-01-31T12:14:57.822Z,42.16
2017-01-31T12:15:57.451Z,42.26
2017-01-31T12:16:57.872Z,42.46
2017-01-31T12:17:57.904Z,42.26
2017-01-31T12:18:58.178Z,42.55
2017-01-31T12:19:57.949Z,42.46
2017-01-31T12:20:57.981Z,42.46
2017-01-31T12:21:58.009Z,42.16
2017-01-31T12:22:58.038Z,41.97
2017-01-31T12:23:57.921Z,42.36
2017-01-31T12:24:57.690Z,42.46
2017-01-31T12:25:58.145Z,42.36
2017-01-31T12:26:58.139Z,42.16
2017-01-31T12:27:58.172Z,42.07
2017-01-31T12:28:58.198Z,42.07
2017-01-31T12:29:57.832Z,41.97
2017-01-31T12:30:58.245Z,42.36
2017-01-31T12:31:58.278Z,42.16
2017-01-31T12:32:57.905Z,42.16
2017-01-31T12:33:58.333Z,42.36
2017-01-31T12:34:58.358Z,42.16
2017-01-31T12:35:58.383Z,42.16
2017-01-31T12:36:58.412Z,42.36
2017-01-31T12:37:58.436Z,42.16
2017-01-31T12:38:58.064Z,42.36
2017-01-31T12:39:58.098Z,42.07
2017-01-31T12:40:58.527Z,42.36
2017-01-31T12:41:58.547Z,42.07
2017-01-31T12:42:58.581Z,42.07
2017-01-31T12:43:58.597Z,42.16
2017-01-31T12:44:58.626Z,41.97
2017-01-31T12:45:58.655Z,42.07
2017-01-31T12:46:58.287Z,42.16
2017-01-31T12:47:58.703Z,42.07
2017-01-31T12:48:58.731Z,42.07
2017-01-31T12:49:58.757Z,42.16
2017-01-31T12:50:58.782Z,41.97
2017-01-31T12:51:58.810Z,41.97
2017-01-31T12:52:58.851Z,42.07
2017-01-31T12:53:58.476Z,41.97
2017-01-31T12:54:59.143Z,42.07
2017-01-31T12:55:58.521Z,41.97
2017-01-31T12:56:58.942Z,41.97